createdAt,value
2022-12-26T00:04:50.632Z,99516.31
2022-12-26T00:09:48.713Z,99514.28
2022-12-26T00:14:50.326Z,99533.03
2022-12-26T00:19:52.020Z,99525.69
2022-12-26T00:24:53.645Z,99526.78
2022-12-26T00:29:55.287Z,99535.03
2022-12-26T00:34:56.918Z,99537.41
2022-12-26T00:39:58.609Z,99531.81
2022-12-26T00:45:00.709Z,99532.03
2022-12-26T00:50:13.483Z,99528.69
2022-12-26T00:55:16.890Z,99523.22
2022-12-26T01:00:18.560Z,99507.81
2022-12-26T01:05:20.237Z,99519.63
2022-12-26T01:10:21.886Z,99512.81
2022-12-26T01:15:23.542Z,99528.28
2022-12-26T01:20:25.526Z,99538.44
2022-12-26T01:25:27.194Z,99528.31
2022-12-26T01:30:28.885Z,99522.28
2022-12-26T01:35:30.526Z,99521.09
2022-12-26T01:40:32.275Z,99515.81
2022-12-26T01:45:33.961Z,99519.75
2022-12-26T01:51:01.708Z,99509.38
2022-12-26T01:56:10.610Z,99514.00
2022-12-26T02:01:12.898Z,99504.81
2022-12-26T02:06:15.852Z,99506.38
2022-12-26T02:11:28.976Z,99508.59
2022-12-26T02:16:30.787Z,99503.06
2022-12-26T02:21:32.478Z,99505.66
2022-12-26T02:26:49.080Z,99521.28
2022-12-26T02:32:04.186Z,99522.50
2022-12-26T02:37:24.659Z,99511.06
2022-12-26T02:42:39.946Z,99513.88
2022-12-26T02:48:03.374Z,99514.03
2022-12-26T02:53:47.289Z,99507.84
2022-12-26T02:59:12.877Z,99513.16
2022-12-26T03:04:37.643Z,99503.28
2022-12-26T03:09:59.775Z,99502.50
2022-12-26T03:15:04.416Z,99509.38
2022-12-26T03:20:15.587Z,99499.97
2022-12-26T03:25:55.476Z,99500.19
2022-12-26T03:31:01.413Z,99485.66
2022-12-26T03:36:04.567Z,99491.34
2022-12-26T03:41:45.008Z,99495.19
2022-12-26T03:47:20.548Z,99483.84
2022-12-26T03:52:47.420Z,99497.03
2022-12-26T03:58:44.582Z,99527.38
2022-12-26T04:04:06.882Z,99523.09
2022-12-26T04:09:44.989Z,99526.88
2022-12-26T04:15:10.000Z,99530.34
2022-12-26T04:20:24.952Z,99529.94
2022-12-26T04:25:48.226Z,99536.13
2022-12-26T04:31:17.862Z,99532.75
2022-12-26T04:36:51.650Z,99540.34
2022-12-26T04:42:14.798Z,99527.22
2022-12-26T04:47:17.165Z,99518.19
2022-12-26T04:52:18.797Z,99525.28
2022-12-26T04:57:20.714Z,99521.50
2022-12-26T05:02:40.782Z,99513.19
2022-12-26T05:08:01.188Z,99524.13
2022-12-26T05:13:02.934Z,99516.81
2022-12-26T05:18:23.190Z,99505.84
2022-12-26T05:23:46.101Z,99522.28
2022-12-26T05:28:55.078Z,99516.53
2022-12-26T05:34:06.143Z,99501.75
2022-12-26T05:39:09.349Z,99524.09
2022-12-26T05:44:11.693Z,99527.97
2022-12-26T05:49:13.349Z,99513.97
2022-12-26T05:54:14.989Z,99515.09
2022-12-26T05:59:16.691Z,99512.69
2022-12-26T06:04:18.383Z,99526.13
2022-12-26T06:09:19.967Z,99527.66
2022-12-26T06:14:21.610Z,99514.41
2022-12-26T06:19:23.244Z,99513.25
2022-12-26T06:24:24.872Z,99505.50
2022-12-26T06:29:26.508Z,99489.06
2022-12-26T06:34:28.409Z,99494.66
2022-12-26T06:39:30.081Z,99512.41
2022-12-26T06:44:31.734Z,99514.97
2022-12-26T06:49:33.540Z,99532.66
2022-12-26T06:54:35.354Z,99542.13
2022-12-26T06:59:37.176Z,99548.31
2022-12-26T07:04:38.825Z,99558.56
2022-12-26T07:09:40.513Z,99557.41
2022-12-26T07:14:42.129Z,99549.31
2022-12-26T07:19:43.863Z,99572.47
2022-12-26T07:24:45.506Z,99570.38
2022-12-26T07:29:47.467Z,99574.75
2022-12-26T07:34:49.123Z,99573.75
2022-12-26T07:39:55.318Z,99591.97
2022-12-26T07:45:00.501Z,99590.06
2022-12-26T07:50:02.469Z,99579.94
2022-12-26T07:55:04.414Z,99597.31
2022-12-26T08:00:06.691Z,99608.28
2022-12-26T08:05:13.746Z,99604.09
2022-12-26T08:10:17.074Z,99584.00
2022-12-26T08:15:18.771Z,99602.81
2022-12-26T08:20:20.434Z,99607.38
2022-12-26T08:25:22.371Z,99612.34
2022-12-26T08:30:24.051Z,99602.34
2022-12-26T08:35:25.673Z,99600.75
2022-12-26T08:40:42.629Z,99609.41
2022-12-26T08:45:45.047Z,99593.91
2022-12-26T08:50:46.703Z,99598.66
2022-12-26T08:55:48.326Z,99605.94
2022-12-26T09:00:55.085Z,99605.94
2022-12-26T09:06:05.621Z,99598.19
2022-12-26T09:11:12.184Z,99608.28
2022-12-26T09:16:16.917Z,99610.34
2022-12-26T09:21:18.633Z,99621.19
2022-12-26T09:26:20.531Z,99638.00
2022-12-26T09:31:27.779Z,99630.69
2022-12-26T09:36:32.773Z,99627.53
2022-12-26T09:41:47.258Z,99646.31
2022-12-26T09:47:16.381Z,99628.94
2022-12-26T09:52:22.426Z,99642.97
2022-12-26T09:57:37.946Z,99639.63
2022-12-26T10:02:39.717Z,99615.66
2022-12-26T10:07:49.829Z,99605.56
2022-12-26T10:13:06.297Z,99612.31
2022-12-26T10:18:23.104Z,99609.59
2022-12-26T10:23:30.495Z,99619.19
2022-12-26T10:28:35.239Z,99629.38
2022-12-26T10:34:06.363Z,99616.16
2022-12-26T10:39:18.064Z,99608.75
2022-12-26T10:44:25.683Z,99603.16
2022-12-26T10:49:29.902Z,99597.31
2022-12-26T10:54:32.265Z,99597.88
2022-12-26T10:59:48.354Z,99608.69
2022-12-26T11:05:15.945Z,99607.22
2022-12-26T11:10:29.719Z,99609.03
2022-12-26T11:15:34.081Z,99599.44
2022-12-26T11:20:36.064Z,99600.38
2022-12-26T11:25:52.023Z,99607.50
2022-12-26T11:30:54.586Z,99609.19
2022-12-26T11:36:02.006Z,99606.34
2022-12-26T11:41:35.901Z,99609.28
2022-12-26T11:46:55.699Z,99591.66
2022-12-26T11:52:00.333Z,99574.56
2022-12-26T11:57:09.192Z,99578.88
2022-12-26T12:02:27.163Z,99586.78
2022-12-26T12:07:53.802Z,99589.88
2022-12-26T12:13:21.682Z,99585.47
2022-12-26T12:18:29.504Z,99594.44
2022-12-26T12:23:59.454Z,99587.69
2022-12-26T12:29:52.415Z,99581.78
2022-12-26T12:35:31.468Z,99573.16
2022-12-26T12:41:05.652Z,99573.53
2022-12-26T12:46:26.414Z,99573.16
2022-12-26T12:51:45.592Z,99576.09
2022-12-26T12:57:19.341Z,99577.25
2022-12-26T13:02:27.377Z,99598.25
2022-12-26T13:07:38.504Z,99681.69
2022-12-26T13:12:45.738Z,99683.84
2022-12-26T13:18:13.281Z,99682.72
2022-12-26T13:23:59.618Z,99681.69
2022-12-26T13:29:32.555Z,99674.88
2022-12-26T13:34:34.560Z,99667.53
2022-12-26T13:39:37.945Z,99662.81
2022-12-26T13:44:39.909Z,99663.56
2022-12-26T13:49:42.063Z,99657.94
2022-12-26T13:54:46.911Z,99650.16
2022-12-26T14:00:06.770Z,99647.50
2022-12-26T14:05:23.981Z,99657.78
2022-12-26T14:10:43.419Z,99640.63
2022-12-26T14:15:57.833Z,99645.56
2022-12-26T14:21:37.399Z,99642.41
2022-12-26T14:27:08.568Z,99648.53
2022-12-26T14:32:28.025Z,99637.69
2022-12-26T14:37:42.367Z,99651.50
2022-12-26T14:43:11.402Z,99654.91
2022-12-26T14:48:16.233Z,99653.34
2022-12-26T14:53:27.530Z,99663.25
2022-12-26T14:58:32.386Z,99659.88
2022-12-26T15:03:58.759Z,99670.53
2022-12-26T15:09:09.332Z,99668.88
2022-12-26T15:14:31.755Z,99673.63
2022-12-26T15:19:36.135Z,99685.53
2022-12-26T15:30:31.064Z,99679.56
2022-12-26T15:35:40.329Z,99692.47
2022-12-26T15:41:11.711Z,99702.81
2022-12-26T15:46:27.637Z,99700.97
2022-12-26T15:51:41.635Z,99701.50
2022-12-26T15:57:01.427Z,99700.00
2022-12-26T16:02:10.089Z,99687.06
2022-12-26T16:07:44.071Z,99692.88
2022-12-26T16:13:22.955Z,99699.19
2022-12-26T16:18:30.991Z,99693.91
2022-12-26T16:23:37.808Z,99710.47
2022-12-26T16:28:41.567Z,99716.94
2022-12-26T16:33:44.050Z,99707.22
2022-12-26T16:38:45.947Z,99707.78
2022-12-26T16:43:49.385Z,99699.41
2022-12-26T16:48:57.137Z,99701.47
2022-12-26T16:54:20.203Z,99707.81
2022-12-26T16:59:25.174Z,99724.19
2022-12-26T17:04:28.976Z,99722.34
2022-12-26T17:09:39.125Z,99721.38
2022-12-26T17:14:46.060Z,99716.03
2022-12-26T17:19:53.722Z,99712.16
2022-12-26T17:25:29.461Z,99696.53
2022-12-26T17:30:32.551Z,99698.25
2022-12-26T17:36:21.365Z,99698.41
2022-12-26T17:41:01.037Z,99687.53
2022-12-26T17:46:04.182Z,99694.91
2022-12-26T17:51:08.123Z,99692.66
2022-12-26T17:56:22.716Z,99696.03
2022-12-26T18:01:24.482Z,99701.16
2022-12-26T18:06:26.591Z,99704.69
2022-12-26T18:11:28.338Z,99706.81
2022-12-26T18:16:30.031Z,99700.25
2022-12-26T18:21:31.739Z,99701.38
2022-12-26T18:26:33.391Z,99676.09
2022-12-26T18:31:35.250Z,99693.97
2022-12-26T18:36:38.675Z,99701.78
2022-12-26T18:41:40.488Z,99693.63
2022-12-26T18:46:42.166Z,99691.25
2022-12-26T18:51:43.956Z,99683.38
2022-12-26T18:56:45.876Z,99674.59
2022-12-26T19:01:47.637Z,99654.63
2022-12-26T19:06:49.637Z,99671.19
2022-12-26T19:11:51.377Z,99661.69
2022-12-26T19:16:53.052Z,99669.31
2022-12-26T19:21:54.718Z,99675.56
2022-12-26T19:26:56.413Z,99673.88
2022-12-26T19:31:58.099Z,99669.72
2022-12-26T19:36:59.772Z,99683.75
2022-12-26T19:42:01.428Z,99681.88
2022-12-26T19:47:11.767Z,99674.56
2022-12-26T19:52:14.627Z,99677.16
2022-12-26T19:57:16.323Z,99697.84
2022-12-26T20:02:18.431Z,99716.34
2022-12-26T20:07:20.296Z,99737.88
2022-12-26T20:12:22.098Z,99751.16
2022-12-26T20:17:23.830Z,99807.56
2022-12-26T20:22:25.569Z,99837.72
2022-12-26T20:27:27.658Z,99859.19
2022-12-26T20:32:29.292Z,99860.00
2022-12-26T20:37:32.201Z,99882.22
2022-12-26T20:42:33.865Z,99871.97
2022-12-26T20:47:35.575Z,99849.38
2022-12-26T20:52:37.277Z,99780.25
2022-12-26T20:57:38.911Z,99799.41
2022-12-26T21:02:40.857Z,99802.16
2022-12-26T21:07:43.083Z,99821.22
2022-12-26T21:12:45.589Z,99864.50
2022-12-26T21:17:47.541Z,99891.22
2022-12-26T21:22:49.391Z,99889.91
2022-12-26T21:27:54.901Z,99888.19
2022-12-26T21:33:02.140Z,99887.59
2022-12-26T21:38:03.917Z,99901.81
2022-12-26T21:43:05.609Z,99906.44
2022-12-26T21:48:07.991Z,99947.75
2022-12-26T21:53:10.011Z,99957.56
2022-12-26T21:58:11.717Z,99974.09
2022-12-26T22:03:31.768Z,99984.03
2022-12-26T22:08:33.990Z,100001.16
2022-12-26T22:13:44.495Z,100016.28
2022-12-26T22:18:47.517Z,100022.56
2022-12-26T22:23:51.563Z,100048.94
2022-12-26T22:28:53.742Z,100049.34
2022-12-26T22:33:58.110Z,100051.22
2022-12-26T22:39:00.250Z,100053.88
2022-12-26T22:44:02.500Z,100081.69
2022-12-26T22:49:04.578Z,100094.78
2022-12-26T22:54:06.548Z,100092.13
2022-12-26T22:59:11.249Z,100095.56
2022-12-26T23:04:13.500Z,100108.59
2022-12-26T23:09:17.336Z,100132.91
2022-12-26T23:14:19.227Z,100160.75
2022-12-26T23:20:08.921Z,100161.66
2022-12-26T23:25:11.829Z,100175.66
2022-12-26T23:30:20.103Z,100169.72
2022-12-26T23:35:22.845Z,100167.13
2022-12-26T23:40:24.657Z,100180.19
2022-12-26T23:45:26.382Z,100181.97
2022-12-26T23:50:28.107Z,100189.72
2022-12-26T23:55:32.952Z,100182.75
